Time;durP1;ratioP1;P1;durP2;ratioP2;P2;SDS_P1;SDS_P2;PMS_P1;PMS_P2;Temp;Humidity;BMP_temperature;BMP_pressure;BME280_temperature;BME280_humidity;BME280_pressure;Samples;Min_cycle;Max_cycle;Signal;HPM_P1;HPM_P2
2022/08/12 00:44:27;;;;;;;1085.13;993.85;;;25.00;71.20;;;;;;4989634;28;20286;-84
2022/08/12 00:46:58;;;;;;;1085.40;993.28;;;25.00;71.30;;;;;;4990692;28;20201;-84
2022/08/12 00:49:26;;;;;;;1066.35;977.22;;;24.90;71.30;;;;;;4988379;28;20197;-83
2022/08/12 00:52:06;;;;;;;1067.97;978.75;;;24.90;71.40;;;;;;4990552;28;20216;-84
2022/08/12 00:54:35;;;;;;;1075.25;985.50;;;24.90;71.40;;;;;;4990390;28;20206;-84
2022/08/12 00:57:04;;;;;;;1071.20;981.92;;;24.80;71.40;;;;;;4993320;28;20627;-83
2022/08/12 00:59:33;;;;;;;1070.75;981.45;;;24.80;71.40;;;;;;4993592;28;20200;-83
2022/08/12 01:02:02;;;;;;;1073.05;983.50;;;24.80;71.50;;;;;;4995072;28;20197;-83
2022/08/12 01:12:46;;;;;;;1074.53;984.85;;;24.70;71.70;;;;;;4994614;28;20351;-83
2022/08/12 01:15:14;;;;;;;1051.07;962.35;;;24.70;71.80;;;;;;4993809;28;20204;-83
2022/08/12 01:17:44;;;;;;;1077.80;988.25;;;24.70;71.80;;;;;;4995347;28;20229;-83
2022/08/12 01:20:20;;;;;;;1072.43;982.85;;;24.70;71.90;;;;;;4992033;28;20216;-83
2022/08/12 01:23:03;;;;;;;1064.25;974.83;;;24.60;71.90;;;;;;4992426;28;20196;-84
2022/08/12 01:25:37;;;;;;;1066.85;977.60;;;24.60;71.90;;;;;;4992662;28;20209;-82
2022/08/12 01:28:07;;;;;;;1061.43;972.15;;;24.60;72.00;;;;;;4992641;28;20205;-84
2022/08/12 01:30:35;;;;;;;1071.38;981.92;;;24.60;72.00;;;;;;4992061;28;20312;-83
2022/08/12 01:33:04;;;;;;;1055.05;966.38;;;24.60;72.10;;;;;;4991465;28;20197;-84
2022/08/12 01:35:34;;;;;;;1065.10;975.90;;;24.60;72.10;;;;;;4995527;28;20604;-84
2022/08/12 01:38:04;;;;;;;1054.80;965.90;;;24.60;72.20;;;;;;4996818;28;20198;-83
2022/08/12 01:40:35;;;;;;;1056.93;967.90;;;24.50;72.10;;;;;;4993860;28;20193;-84
2022/08/12 01:43:06;;;;;;;1076.25;986.67;;;24.50;72.10;;;;;;4986779;28;20224;-83
2022/08/12 01:45:35;;;;;;;1063.85;974.60;;;24.50;72.20;;;;;;4992594;28;20233;-83
2022/08/12 01:48:14;;;;;;;1069.22;979.88;;;24.50;72.20;;;;;;4995121;28;20207;-83
2022/08/12 01:50:55;;;;;;;1070.78;981.22;;;24.50;72.30;;;;;;4988859;28;20588;-83
2022/08/12 01:53:25;;;;;;;1062.47;973.38;;;24.40;72.20;;;;;;4994234;28;20197;-83
2022/08/12 01:55:55;;;;;;;1057.97;969.08;;;24.40;72.30;;;;;;4991471;28;20207;-82
2022/08/12 01:59:44;;;;;;;1052.05;963.35;;;24.40;72.30;;;;;;4993514;28;20288;-82
2022/08/12 02:01:19;;;;;;;1052.30;963.75;;;24.40;72.40;;;;;;4987010;28;20197;-83
2022/08/12 02:12:53;;;;;;;1063.13;973.97;;;24.30;72.50;;;;;;4993208;28;20235;-81
2022/08/12 02:15:30;;;;;;;1050.07;961.35;;;24.30;72.60;;;;;;4989782;28;20212;-82
2022/08/12 02:18:12;;;;;;;1060.60;971.38;;;24.30;72.60;;;;;;4993199;28;20212;-82
2022/08/12 02:20:48;;;;;;;1060.50;971.25;;;24.30;72.70;;;;;;4992220;28;20228;-81
2022/08/12 02:23:18;;;;;;;1049.75;960.92;;;24.20;72.70;;;;;;4993246;28;20643;-82
2022/08/12 02:25:46;;;;;;;1044.47;955.83;;;24.20;72.70;;;;;;4991418;28;20256;-82
2022/08/12 02:28:14;;;;;;;1048.07;959.33;;;24.20;72.80;;;;;;4994545;28;20193;-82
2022/08/12 02:30:41;;;;;;;1036.10;947.63;;;24.20;72.90;;;;;;4993225;28;20224;-82
2022/08/12 02:33:09;;;;;;;1048.35;959.58;;;24.20;72.90;;;;;;5001060;28;20201;-82
2022/08/12 02:35:38;;;;;;;1049.93;961.03;;;24.10;72.90;;;;;;4992287;28;20220;-82
2022/08/12 02:38:07;;;;;;;1056.85;967.65;;;24.10;73.00;;;;;;4993750;28;20208;-81
2022/08/12 02:40:37;;;;;;;1052.70;963.88;;;24.10;73.00;;;;;;4989239;28;20189;-81
2022/08/12 02:43:12;;;;;;;1056.22;967.25;;;24.10;73.10;;;;;;4988394;28;20604;-82
2022/08/12 02:45:46;;;;;;;1032.20;944.30;;;24.10;73.20;;;;;;4994654;28;20208;-82
2022/08/12 02:48:19;;;;;;;1053.43;964.40;;;24.00;73.10;;;;;;4993007;28;20557;-81
2022/08/12 02:50:50;;;;;;;1063.10;973.88;;;24.00;73.20;;;;;;4991618;28;20706;-81
2022/08/12 02:53:17;;;;;;;1055.30;966.35;;;24.00;73.20;;;;;;4993180;28;20608;-81
2022/08/12 02:55:45;;;;;;;1057.68;968.35;;;24.00;73.20;;;;;;5003066;28;20201;-80
2022/08/12 02:58:13;;;;;;;1038.93;950.58;;;23.90;73.20;;;;;;5005625;28;21063;-81
2022/08/12 03:00:43;;;;;;;1053.88;964.85;;;23.90;73.20;;;;;;5006891;28;20251;-82
2022/08/12 03:03:12;;;;;;;1052.43;963.30;;;23.90;73.40;;;;;;5001127;28;20668;-81
2022/08/12 03:05:47;;;;;;;1042.72;954.35;;;23.90;73.40;;;;;;4989227;28;20205;-81
2022/08/12 03:08:24;;;;;;;1037.82;949.20;;;23.90;73.50;;;;;;4994310;28;20239;-83
2022/08/12 03:10:54;;;;;;;1038.28;949.83;;;23.80;73.40;;;;;;4991781;28;20227;-83
2022/08/12 03:13:26;;;;;;;1028.30;940.08;;;23.80;73.40;;;;;;4991421;28;20212;-82
2022/08/12 03:15:55;;;;;;;1032.75;944.50;;;23.80;73.40;;;;;;5000782;28;20197;-81
2022/08/12 03:18:27;;;;;;;1044.65;955.97;;;23.80;73.50;;;;;;4992539;28;20671;-81
2022/08/12 03:20:55;;;;;;;1038.40;949.88;;;23.70;73.40;;;;;;4990801;28;20201;-83
2022/08/12 03:23:23;;;;;;;1034.78;946.45;;;23.70;73.40;;;;;;5000113;28;20665;-83
2022/08/12 03:25:52;;;;;;;1028.55;940.53;;;23.70;73.50;;;;;;4996888;28;20208;-83
2022/08/12 03:31:04;;;;;;;1025.32;937.17;;;23.70;73.60;;;;;;4995374;28;20217;-83
2022/08/12 03:33:36;;;;;;;1050.45;961.45;;;23.60;73.50;;;;;;4997928;28;20196;-81
2022/08/12 03:36:05;;;;;;;1030.43;942.20;;;23.60;73.60;;;;;;4992441;28;20299;-81
2022/08/12 03:38:36;;;;;;;1022.67;934.72;;;23.60;73.60;;;;;;5000030;28;20200;-82
2022/08/12 04:00:24;;;;;;;1016.47;928.53;;;23.40;73.80;;;;;;4990040;28;20259;-81
2022/08/12 04:03:00;;;;;;;1033.88;945.40;;;23.40;73.90;;;;;;4990262;28;20267;-82
2022/08/12 04:05:28;;;;;;;1035.50;947.13;;;23.40;73.90;;;;;;4988921;28;20201;-80
2022/08/12 04:07:56;;;;;;;1015.42;927.88;;;23.40;74.00;;;;;;4987577;28;20200;-81
2022/08/12 04:13:13;;;;;;;1034.68;946.03;;;23.30;74.40;;;;;;4994456;28;20828;-81
2022/08/12 04:13:18;;;;;;;1021.67;933.42;;;23.30;74.00;;;;;;4995551;28;20283;-80
2022/08/12 04:15:45;;;;;;;1037.72;948.92;;;23.30;74.00;;;;;;4994898;28;20703;-81
2022/08/12 04:18:15;;;;;;;1022.25;934.17;;;23.30;74.00;;;;;;4996430;28;20201;-80
2022/08/12 04:20:42;;;;;;;1020.08;931.97;;;23.30;74.20;;;;;;4994260;28;20695;-80
2022/08/12 04:23:11;;;;;;;1030.88;942.30;;;23.20;74.10;;;;;;4995166;28;20224;-80
2022/08/12 04:25:40;;;;;;;1020.53;931.80;;;23.20;74.10;;;;;;5002838;28;20205;-81
2022/08/12 04:28:07;;;;;;;1015.45;927.45;;;23.20;74.10;;;;;;5007794;28;20193;-80
2022/08/12 04:30:35;;;;;;;1029.45;940.92;;;23.20;74.10;;;;;;5005010;28;20212;-81
2022/08/12 04:33:03;;;;;;;1020.13;931.90;;;23.20;74.20;;;;;;5009570;28;20269;-81
2022/08/12 04:35:31;;;;;;;1023.35;935.05;;;23.20;74.30;;;;;;5006266;28;20197;-81
2022/08/12 04:37:58;;;;;;;1018.72;930.90;;;23.20;74.20;;;;;;5004979;28;20212;-81
2022/08/12 04:40:28;;;;;;;1028.68;940.20;;;23.10;74.20;;;;;;5007663;28;20185;-80
2022/08/12 04:42:55;;;;;;;1022.28;934.20;;;23.10;74.20;;;;;;5003506;28;20658;-80
2022/08/12 04:45:22;;;;;;;1019.75;931.58;;;23.10;74.30;;;;;;5007273;28;20223;-80
2022/08/12 04:47:49;;;;;;;1025.85;937.75;;;23.10;74.50;;;;;;5006167;28;20205;-81
2022/08/12 04:50:17;;;;;;;1017.53;929.53;;;23.10;74.50;;;;;;5006549;28;20185;-80
2022/08/12 04:52:46;;;;;;;1016.15;928.22;;;23.10;74.50;;;;;;5009028;28;20203;-80
2022/08/12 04:55:12;;;;;;;1008.40;920.58;;;23.10;74.60;;;;;;5005331;28;20211;-80
2022/08/12 04:57:39;;;;;;;1020.72;932.47;;;23.10;74.70;;;;;;5010116;28;20207;-81
2022/08/12 05:00:11;;;;;;;1020.20;932.03;;;23.00;74.60;;;;;;5011319;28;20259;-81
2022/08/12 05:02:38;;;;;;;1010.58;922.45;;;23.00;74.60;;;;;;5009402;28;20208;-81
2022/08/12 05:05:08;;;;;;;1021.70;933.28;;;23.00;74.60;;;;;;5009846;28;20229;-80
2022/08/12 05:07:35;;;;;;;1014.97;926.88;;;23.00;74.80;;;;;;5011009;28;20209;-81
2022/08/12 05:10:04;;;;;;;1008.67;920.80;;;23.00;74.80;;;;;;5012031;28;20212;-81
2022/08/12 05:12:37;;;;;;;1012.50;924.35;;;23.00;75.00;;;;;;5007335;28;20218;-80
2022/08/12 05:15:05;;;;;;;1001.63;914.00;;;23.00;74.80;;;;;;5008220;28;20591;-81
2022/08/12 05:17:32;;;;;;;1015.72;927.72;;;23.00;75.00;;;;;;5011308;28;20265;-82
2022/08/12 05:19:59;;;;;;;1021.78;933.58;;;22.90;75.00;;;;;;5002781;28;20688;-81
2022/08/12 05:22:27;;;;;;;1005.50;917.70;;;22.90;75.00;;;;;;4992878;28;20213;-81
2022/08/12 05:24:54;;;;;;;1015.22;927.05;;;22.90;75.00;;;;;;4993130;28;20732;-81
2022/08/12 05:27:22;;;;;;;1015.88;927.90;;;22.90;75.10;;;;;;4996174;28;20220;-81
2022/08/12 05:29:49;;;;;;;1004.83;917.20;;;22.90;75.10;;;;;;4997968;28;20197;-81
2022/08/12 05:32:19;;;;;;;1017.63;929.58;;;22.90;75.20;;;;;;4994692;28;20221;-80
2022/08/12 05:34:46;;;;;;;1000.20;912.50;;;22.90;75.20;;;;;;5000963;28;20197;-80
2022/08/12 05:37:13;;;;;;;994.30;906.97;;;22.90;75.30;;;;;;4999217;28;20197;-80
2022/08/12 05:39:40;;;;;;;1008.50;921.15;;;22.90;75.30;;;;;;5003610;28;20208;-82
2022/08/12 05:42:07;;;;;;;1008.17;920.40;;;22.90;76.10;;;;;;5007709;28;20284;-82
2022/08/12 05:44:36;;;;;;;995.00;907.83;;;22.90;75.20;;;;;;5005348;28;20568;-79
2022/08/12 05:47:03;;;;;;;1018.42;930.33;;;23.00;75.10;;;;;;5007544;28;20201;-80
2022/08/12 05:49:32;;;;;;;1017.15;929.30;;;23.20;74.90;;;;;;5009009;28;20657;-81
2022/08/12 05:51:58;;;;;;;1016.08;928.15;;;23.30;74.40;;;;;;5006558;28;20659;-81
2022/08/12 05:54:26;;;;;;;1015.47;927.47;;;23.60;74.00;;;;;;5002145;28;20220;-81
2022/08/12 05:56:53;;;;;;;1025.57;937.17;;;23.80;73.60;;;;;;5003642;28;20793;-81
2022/08/12 05:59:20;;;;;;;1041.38;952.40;;;24.00;73.10;;;;;;5004530;28;20201;-82
2022/08/12 06:01:48;;;;;;;1046.22;957.28;;;24.30;72.70;;;;;;5002816;28;20196;-82
2022/08/12 06:04:15;;;;;;;1061.22;971.70;;;24.50;72.20;;;;;;4992443;28;20219;-83
2022/08/12 06:06:42;;;;;;;1062.30;972.67;;;24.60;71.60;;;;;;5002953;28;20204;-82
2022/08/12 06:09:10;;;;;;;1069.88;979.45;;;24.80;71.30;;;;;;5006462;28;20686;-83
2022/08/12 06:11:40;;;;;;;1065.55;975.63;;;25.00;71.00;;;;;;5001181;28;20213;-80
2022/08/12 06:14:07;;;;;;;1068.38;978.63;;;25.10;70.50;;;;;;4996364;28;20205;-81
2022/08/12 06:16:34;;;;;;;1073.18;983.22;;;25.20;70.20;;;;;;4989758;28;20201;-80
2022/08/12 06:19:02;;;;;;;1073.50;983.70;;;25.30;69.80;;;;;;4992610;28;20221;-80
2022/08/12 06:21:29;;;;;;;1081.27;990.90;;;25.40;70.30;;;;;;4991150;28;20552;-80
2022/08/12 06:23:57;;;;;;;1089.13;997.00;;;25.60;70.10;;;;;;4990578;28;20510;-80
2022/08/12 06:26:23;;;;;;;1097.50;999.20;;;25.70;69.00;;;;;;4991351;28;20197;-80
2022/08/12 06:28:50;;;;;;;1087.70;995.23;;;25.80;68.80;;;;;;4993069;28;20949;-79
2022/08/12 06:31:18;;;;;;;1091.60;997.77;;;25.90;68.50;;;;;;4993508;28;20479;-79
2022/08/12 06:33:47;;;;;;;1094.53;999.30;;;26.00;68.30;;;;;;4992903;28;20422;-80
2022/08/12 06:36:17;;;;;;;1099.13;999.90;;;26.10;68.10;;;;;;4992552;28;20812;-79
2022/08/12 06:38:46;;;;;;;1096.43;999.10;;;26.20;67.80;;;;;;4990004;28;20456;-81
2022/08/12 06:43:59;;;;;;;1097.30;998.83;;;26.40;67.50;;;;;;4973890;28;20815;-80
2022/08/12 06:46:28;;;;;;;1103.03;999.90;;;26.50;67.30;;;;;;4991257;28;20462;-80
2022/08/12 06:48:57;;;;;;;1121.03;999.90;;;26.60;67.10;;;;;;4989654;28;20627;-79
2022/08/12 06:51:27;;;;;;;1112.73;999.90;;;26.60;66.90;;;;;;4991180;28;20458;-80
2022/08/12 06:53:54;;;;;;;1122.40;999.90;;;26.70;66.80;;;;;;4999777;28;20540;-81
2022/08/12 06:56:21;;;;;;;1121.77;999.90;;;26.80;66.60;;;;;;4996687;28;20468;-79
2022/08/12 06:58:48;;;;;;;1115.57;999.90;;;26.90;66.50;;;;;;4994259;28;20457;-80
2022/08/12 07:01:16;;;;;;;1132.60;999.90;;;26.90;66.40;;;;;;4993008;28;20937;-80
2022/08/12 07:03:42;;;;;;;1123.60;999.90;;;27.00;66.10;;;;;;4994215;28;20468;-80
2022/08/12 07:06:12;;;;;;;1125.47;999.90;;;27.00;66.00;;;;;;4990558;28;20447;-79
2022/08/12 07:08:42;;;;;;;1143.73;999.90;;;27.10;66.00;;;;;;4990440;28;20471;-79
2022/08/12 07:11:12;;;;;;;1130.17;999.90;;;27.20;66.00;;;;;;4989231;28;20475;-79
2022/08/12 07:13:42;;;;;;;1137.33;999.90;;;27.30;65.80;;;;;;4991057;28;20464;-79
2022/08/12 07:16:12;;;;;;;1126.80;999.90;;;27.30;65.60;;;;;;4991066;28;20452;-80
2022/08/12 07:18:39;;;;;;;1142.27;999.90;;;27.40;66.20;;;;;;4990521;28;21040;-79
2022/08/12 07:21:07;;;;;;;1137.40;999.90;;;27.40;65.30;;;;;;4990885;28;20456;-79
2022/08/12 07:23:36;;;;;;;1151.70;999.90;;;27.50;65.10;;;;;;4995141;28;20438;-79
2022/08/12 07:26:06;;;;;;;1138.80;999.90;;;27.60;64.90;;;;;;4991767;28;20838;-79
2022/08/12 07:28:38;;;;;;;1149.33;999.90;;;27.70;64.90;;;;;;4999221;28;20452;-80
2022/08/12 07:31:07;;;;;;;1151.07;999.90;;;27.70;64.60;;;;;;4993059;28;20502;-80
2022/08/12 07:33:38;;;;;;;1146.60;999.90;;;27.80;64.60;;;;;;4994650;28;20435;-79
2022/08/12 07:36:06;;;;;;;1154.17;999.90;;;27.90;64.50;;;;;;4993016;28;20986;-80
2022/08/12 07:38:35;;;;;;;1158.40;999.90;;;27.90;64.30;;;;;;4998003;28;20924;-79
2022/08/12 07:41:06;;;;;;;1153.83;999.90;;;28.00;64.30;;;;;;4989848;28;20435;-79
2022/08/12 07:43:36;;;;;;;1149.93;999.90;;;28.00;64.10;;;;;;4991016;28;20433;-79
2022/08/12 07:46:04;;;;;;;1164.33;999.90;;;28.10;64.00;;;;;;4985264;28;20456;-79
2022/08/12 07:48:37;;;;;;;1164.40;999.90;;;28.10;64.00;;;;;;4990597;28;20464;-79
2022/08/12 07:51:04;;;;;;;1172.33;999.90;;;28.20;63.80;;;;;;4983228;28;20475;-79
2022/08/12 07:53:30;;;;;;;1161.50;999.90;;;28.30;63.60;;;;;;4996188;28;21095;-81
2022/08/12 07:55:57;;;;;;;1172.63;999.90;;;28.30;63.50;;;;;;4993874;28;20471;-80
2022/08/12 07:58:26;;;;;;;1179.77;999.90;;;28.40;63.30;;;;;;4993176;28;20490;-83
2022/08/12 08:00:56;;;;;;;1166.30;999.90;;;28.50;62.90;;;;;;5003338;28;20467;-83
2022/08/12 08:03:23;;;;;;;1173.40;999.90;;;28.50;63.00;;;;;;5001090;28;20451;-83
2022/08/12 08:05:50;;;;;;;1165.47;999.90;;;28.60;63.00;;;;;;4998735;28;20555;-83
2022/08/12 08:08:18;;;;;;;1180.27;999.90;;;28.60;62.90;;;;;;4992225;28;20466;-83
2022/08/12 08:10:46;;;;;;;1182.23;999.90;;;28.60;62.40;;;;;;4994305;28;20471;-82
2022/08/12 08:13:14;;;;;;;1175.73;999.90;;;28.60;62.50;;;;;;4999158;28;20492;-82
2022/08/12 08:15:44;;;;;;;1185.77;999.90;;;28.60;62.50;;;;;;4998329;28;20439;-82
2022/08/12 08:18:14;;;;;;;1185.20;999.90;;;28.70;62.40;;;;;;4994921;28;20987;-81
2022/08/12 08:20:43;;;;;;;1184.73;999.90;;;28.70;62.20;;;;;;4998587;28;20442;-83
2022/08/12 08:23:13;;;;;;;1180.70;999.90;;;28.70;62.10;;;;;;5002857;28;20463;-83
2022/08/12 08:25:40;;;;;;;1183.50;999.90;;;28.80;61.90;;;;;;4999573;28;20430;-83
2022/08/12 08:28:09;;;;;;;1184.17;999.90;;;28.80;62.00;;;;;;5001750;28;20437;-84
2022/08/12 08:30:38;;;;;;;1194.90;999.90;;;28.80;61.60;;;;;;5003841;28;20444;-82
2022/08/12 08:33:09;;;;;;;1185.97;999.90;;;28.90;61.80;;;;;;4998527;28;20491;-83
2022/08/12 08:35:37;;;;;;;1192.60;999.90;;;28.90;61.60;;;;;;4998653;28;20635;-82
2022/08/12 08:38:12;;;;;;;1193.97;999.90;;;28.90;61.30;;;;;;4997885;28;20431;-84
2022/08/12 08:43:26;;;;;;;1180.70;999.90;;;28.90;61.10;;;;;;4999302;28;20425;-82
2022/08/12 08:45:55;;;;;;;1192.03;999.90;;;29.00;60.90;;;;;;5002914;28;20440;-83
2022/08/12 08:48:23;;;;;;;1190.60;999.90;;;28.90;61.40;;;;;;4999768;28;20499;-83
2022/08/12 08:50:51;;;;;;;1192.00;999.90;;;29.00;61.50;;;;;;4994868;28;20443;-84
2022/08/12 08:53:19;;;;;;;1187.97;999.90;;;29.00;61.20;;;;;;4999500;28;20457;-83
2022/08/12 08:55:47;;;;;;;1199.07;999.90;;;29.00;61.50;;;;;;4992091;28;20475;-82
2022/08/12 08:58:14;;;;;;;1189.97;999.90;;;29.00;60.80;;;;;;4998875;28;20495;-83
2022/08/12 09:00:42;;;;;;;1193.47;999.90;;;29.00;61.20;;;;;;5003712;28;21242;-82
2022/08/12 09:03:09;;;;;;;1191.40;999.90;;;29.00;61.30;;;;;;5004940;28;20470;-82
2022/08/12 09:05:37;;;;;;;1197.97;999.90;;;29.00;61.40;;;;;;4992446;28;20438;-83
2022/08/12 09:08:05;;;;;;;1204.37;999.90;;;29.10;58.90;;;;;;4988083;28;20460;-83
2022/08/12 09:10:33;;;;;;;1199.40;999.90;;;29.10;58.90;;;;;;4991215;28;20470;-83
2022/08/12 09:15:45;;;;;;;1195.27;999.90;;;29.00;58.70;;;;;;4987782;28;20432;-83
2022/08/12 09:18:14;;;;;;;1194.67;999.90;;;29.00;58.50;;;;;;4989816;28;20433;-85
2022/08/12 09:20:43;;;;;;;1194.73;999.90;;;29.00;58.70;;;;;;4993403;28;20472;-84
2022/08/12 09:23:11;;;;;;;1200.63;999.90;;;29.00;59.10;;;;;;4997787;28;20926;-85
2022/08/12 09:25:39;;;;;;;1199.73;999.90;;;29.00;59.00;;;;;;4996352;28;20824;-83
2022/08/12 09:28:08;;;;;;;1191.70;999.90;;;28.90;58.40;;;;;;4997542;28;20570;-83
2022/08/12 09:30:36;;;;;;;1192.03;999.90;;;28.90;59.00;;;;;;4996718;28;20992;-80
2022/08/12 09:33:02;;;;;;;1188.87;999.90;;;28.90;55.20;;;;;;4994351;28;20483;-82
2022/08/12 09:35:32;;;;;;;1192.00;999.90;;;29.00;56.10;;;;;;4998527;28;20475;-83
2022/08/12 09:38:02;;;;;;;1199.80;999.90;;;29.00;56.30;;;;;;4998694;28;20460;-83
2022/08/12 09:40:30;;;;;;;1201.23;999.90;;;29.00;56.90;;;;;;5000410;28;20463;-82
2022/08/12 09:45:44;;;;;;;1192.97;999.90;;;28.90;56.70;;;;;;4992906;28;20446;-83
2022/08/12 09:48:16;;;;;;;1205.90;999.90;;;28.90;56.40;;;;;;4991374;28;20442;-82
2022/08/12 09:50:43;;;;;;;1196.53;999.90;;;29.10;51.30;;;;;;4992049;28;20545;-81
2022/08/12 09:53:14;;;;;;;1220.43;999.90;;;29.20;51.80;;;;;;4992027;28;20480;-81
2022/08/12 09:55:43;;;;;;;1218.17;999.90;;;29.50;49.90;;;;;;5006172;28;20435;-81
2022/08/12 09:58:09;;;;;;;1211.60;999.90;;;29.70;49.50;;;;;;4991405;28;20464;-79
2022/08/12 10:00:36;;;;;;;1207.93;999.90;;;29.70;51.00;;;;;;4991786;28;20443;-82
2022/08/12 10:03:04;;;;;;;1206.80;999.90;;;29.50;51.90;;;;;;4987913;28;20467;-80
2022/08/12 10:05:35;;;;;;;1210.27;999.90;;;29.40;51.90;;;;;;4990429;28;20472;-81
2022/08/12 10:08:02;;;;;;;1210.80;999.90;;;29.30;52.40;;;;;;4989863;28;20480;-80
2022/08/12 10:10:31;;;;;;;1203.23;999.90;;;29.20;52.90;;;;;;4991358;28;20439;-81
2022/08/12 10:15:43;;;;;;;1195.93;999.90;;;29.00;53.50;;;;;;4987541;28;20837;-80
2022/08/12 10:18:11;;;;;;;1204.93;999.90;;;28.90;53.50;;;;;;4990835;28;20496;-80
2022/08/12 10:20:38;;;;;;;1199.27;999.90;;;28.90;53.90;;;;;;4991059;28;20446;-81
2022/08/12 10:23:05;;;;;;;1187.87;999.90;;;28.90;54.00;;;;;;4991469;28;20466;-80
2022/08/12 10:31:03;;;;;;;1185.33;999.90;;;28.70;54.80;;;;;;4988467;28;20471;-79
2022/08/12 10:33:30;;;;;;;1183.37;999.90;;;28.70;55.20;;;;;;4989004;28;20472;-79
2022/08/12 10:35:58;;;;;;;1192.90;999.90;;;28.70;55.20;;;;;;4991009;28;20434;-80
2022/08/12 10:38:25;;;;;;;1190.07;999.90;;;28.70;55.30;;;;;;4991320;28;20534;-80
2022/08/12 10:43:43;;;;;;;1183.00;999.90;;;28.70;55.60;;;;;;4992342;28;20456;-80
2022/08/12 10:46:16;;;;;;;1176.27;999.90;;;28.60;55.60;;;;;;4990242;28;20874;-79
2022/08/12 10:48:47;;;;;;;1182.10;999.90;;;28.60;55.70;;;;;;4990244;28;20942;-78
2022/08/12 10:51:17;;;;;;;1184.03;999.90;;;28.60;55.80;;;;;;4986180;28;20975;-80
2022/08/12 10:53:45;;;;;;;1191.53;999.90;;;28.50;55.40;;;;;;4990811;28;20473;-78
2022/08/12 10:56:14;;;;;;;1196.00;999.90;;;28.50;55.50;;;;;;4990041;28;20472;-78
2022/08/12 10:58:41;;;;;;;1188.00;999.90;;;28.50;55.70;;;;;;4990177;28;20468;-78
2022/08/12 11:01:09;;;;;;;1188.30;999.90;;;28.50;55.90;;;;;;4988908;28;20867;-79
2022/08/12 11:03:36;;;;;;;1180.13;999.90;;;28.50;55.50;;;;;;4990752;28;20438;-79
2022/08/12 11:06:06;;;;;;;1178.50;999.90;;;28.40;56.10;;;;;;4987181;28;20457;-79
2022/08/12 11:08:34;;;;;;;1180.87;999.90;;;28.40;56.20;;;;;;4989059;28;20465;-78
2022/08/12 11:11:01;;;;;;;1180.73;999.90;;;28.40;56.20;;;;;;4992635;28;20452;-77
2022/08/12 11:13:29;;;;;;;1175.83;999.90;;;28.40;56.00;;;;;;4986347;28;20459;-78
2022/08/12 11:15:56;;;;;;;1181.03;999.90;;;28.40;55.80;;;;;;4987712;28;20430;-79
2022/08/12 11:18:23;;;;;;;1173.00;999.90;;;28.40;55.90;;;;;;4990728;28;20431;-80
2022/08/12 11:20:52;;;;;;;1158.77;999.90;;;28.40;56.10;;;;;;4989056;28;20452;-78
2022/08/12 11:23:19;;;;;;;1185.53;999.90;;;28.40;56.00;;;;;;4988540;28;20503;-79
2022/08/12 11:25:46;;;;;;;1175.40;999.90;;;28.40;56.00;;;;;;4988677;28;20949;-79
2022/08/12 11:28:13;;;;;;;1175.17;999.90;;;28.40;55.80;;;;;;4988447;28;20951;-78
2022/08/12 11:30:41;;;;;;;1179.23;999.90;;;28.40;55.70;;;;;;4985769;28;21266;-79
2022/08/12 11:33:08;;;;;;;1169.33;999.90;;;28.40;55.70;;;;;;4989587;28;20492;-80
2022/08/12 11:35:37;;;;;;;1169.93;999.90;;;28.40;55.30;;;;;;4989790;28;20442;-79
2022/08/12 11:38:04;;;;;;;1170.50;999.90;;;28.30;55.50;;;;;;4988479;28;20823;-81
2022/08/12 11:40:31;;;;;;;1178.40;999.90;;;28.30;55.30;;;;;;4989608;28;20945;-79
2022/08/12 11:42:59;;;;;;;1179.83;999.90;;;28.30;55.50;;;;;;4988813;28;20933;-79
2022/08/12 11:45:26;;;;;;;1174.50;999.90;;;28.30;55.50;;;;;;4988621;28;20471;-78
2022/08/12 11:47:55;;;;;;;1162.77;999.90;;;28.30;55.60;;;;;;4987946;28;20511;-80
2022/08/12 11:50:22;;;;;;;1172.10;999.90;;;28.30;55.30;;;;;;4987284;28;20889;-79
2022/08/12 11:52:50;;;;;;;1174.60;999.90;;;28.30;55.10;;;;;;4989296;28;20487;-79
2022/08/12 11:55:17;;;;;;;1167.53;999.90;;;28.20;55.30;;;;;;4989158;28;20430;-79
2022/08/12 11:57:51;;;;;;;1168.07;999.90;;;28.20;55.40;;;;;;4987844;28;20443;-81
2022/08/12 12:00:18;;;;;;;1165.67;999.90;;;28.30;55.70;;;;;;4988325;28;20944;-79
2022/08/12 12:02:45;;;;;;;1165.03;999.90;;;28.20;55.30;;;;;;4984456;28;20960;-80
2022/08/12 12:05:14;;;;;;;1177.67;999.90;;;28.20;55.30;;;;;;4987676;28;20458;-79
2022/08/12 12:07:42;;;;;;;1171.40;999.90;;;28.20;55.50;;;;;;4990409;28;20439;-79
2022/08/12 12:10:09;;;;;;;1162.97;999.90;;;28.20;55.70;;;;;;4986893;28;20431;-79
2022/08/12 12:12:35;;;;;;;1165.37;999.90;;;28.20;55.90;;;;;;4988347;28;20467;-80
2022/08/12 12:15:05;;;;;;;1181.47;999.90;;;28.20;55.50;;;;;;4988367;28;20810;-80
2022/08/12 12:17:35;;;;;;;1158.33;999.90;;;28.10;55.80;;;;;;4984226;28;20494;-79
2022/08/12 12:20:04;;;;;;;1168.53;999.90;;;28.10;55.50;;;;;;4987140;28;20459;-79
2022/08/12 12:22:32;;;;;;;1162.37;999.90;;;28.10;55.60;;;;;;4988596;28;20466;-79
2022/08/12 12:24:59;;;;;;;1170.93;999.90;;;28.10;55.40;;;;;;4985064;28;20551;-79
2022/08/12 12:27:26;;;;;;;1161.73;999.90;;;28.10;55.20;;;;;;4988199;28;20468;-78
2022/08/12 12:29:53;;;;;;;1166.70;999.90;;;28.10;55.00;;;;;;4987774;28;20798;-79
2022/08/12 12:32:20;;;;;;;1161.07;999.90;;;28.10;55.10;;;;;;4989056;28;20464;-78
2022/08/12 12:34:46;;;;;;;1170.07;999.90;;;28.00;54.90;;;;;;4985678;28;20487;-78
2022/08/12 12:37:14;;;;;;;1163.20;999.90;;;28.00;55.00;;;;;;4989368;28;20464;-76
2022/08/12 12:39:42;;;;;;;1170.60;999.90;;;28.00;55.30;;;;;;4987107;28;20967;-78
2022/08/12 12:42:09;;;;;;;1171.80;999.90;;;28.00;54.70;;;;;;4989047;28;20496;-76
2022/08/12 12:44:35;;;;;;;1151.27;999.90;;;28.00;53.80;;;;;;4982547;28;20806;-78
2022/08/12 12:47:02;;;;;;;1154.47;999.90;;;28.00;53.90;;;;;;4988928;28;20759;-78
2022/08/12 12:49:29;;;;;;;1167.17;999.90;;;28.00;54.10;;;;;;4985989;28;20468;-77
2022/08/12 12:51:55;;;;;;;1168.50;999.90;;;28.00;54.20;;;;;;4983523;28;20474;-77
2022/08/12 12:54:22;;;;;;;1168.83;999.90;;;28.00;54.00;;;;;;4992460;28;21012;-77
2022/08/12 12:56:53;;;;;;;1168.70;999.90;;;28.00;53.60;;;;;;4993031;28;20989;-79
2022/08/12 12:59:22;;;;;;;1162.73;999.90;;;28.00;53.50;;;;;;4991279;28;20491;-79
2022/08/12 13:01:50;;;;;;;1154.27;999.90;;;28.00;54.00;;;;;;4989763;28;20460;-78
2022/08/12 13:04:17;;;;;;;1167.83;999.90;;;28.00;54.10;;;;;;4986706;28;20962;-76
2022/08/12 13:06:50;;;;;;;1159.97;999.90;;;27.90;53.80;;;;;;4991457;28;20460;-78
2022/08/12 13:09:18;;;;;;;1164.63;999.90;;;27.90;53.30;;;;;;4990735;28;20844;-79
2022/08/12 13:11:45;;;;;;;1148.27;999.90;;;27.90;53.60;;;;;;4991786;28;20455;-78
2022/08/12 13:14:14;;;;;;;1153.73;999.90;;;27.90;53.60;;;;;;4991341;28;20454;-78
2022/08/12 13:16:42;;;;;;;1166.63;999.90;;;27.90;53.40;;;;;;4988736;28;20460;-77
2022/08/12 13:19:09;;;;;;;1164.90;999.90;;;27.90;53.30;;;;;;4991457;28;20878;-79
2022/08/12 13:22:14;;;;;;;1150.60;999.90;;;27.90;53.50;;;;;;4992335;28;20874;-77
2022/08/12 13:24:23;;;;;;;1151.97;999.90;;;27.90;53.70;;;;;;4986605;28;20445;-78
2022/08/12 13:26:49;;;;;;;1144.90;999.90;;;27.90;53.70;;;;;;4989078;28;20943;-78
2022/08/12 13:29:17;;;;;;;1148.47;999.90;;;27.90;53.70;;;;;;4991926;28;20434;-79
2022/08/12 13:31:44;;;;;;;1148.00;999.90;;;27.90;53.50;;;;;;4989235;28;20476;-78
2022/08/12 13:34:13;;;;;;;1162.10;999.90;;;27.90;53.30;;;;;;4988152;28;20850;-79
2022/08/12 13:36:41;;;;;;;1155.23;999.90;;;27.90;53.40;;;;;;4993866;28;20490;-80
2022/08/12 13:39:07;;;;;;;1152.50;999.90;;;27.90;53.70;;;;;;4992120;28;20506;-78
2022/08/12 13:41:34;;;;;;;1143.70;999.90;;;27.90;53.80;;;;;;4990145;28;20909;-79
2022/08/12 13:44:03;;;;;;;1163.70;999.90;;;27.90;54.00;;;;;;4993148;28;20438;-78
2022/08/12 13:46:33;;;;;;;1160.77;999.90;;;27.90;53.80;;;;;;4994261;28;20426;-80
2022/08/12 13:49:01;;;;;;;1167.33;999.90;;;27.90;54.00;;;;;;4993301;28;20546;-79
2022/08/12 13:51:28;;;;;;;1160.40;999.90;;;27.90;53.70;;;;;;4991012;28;20463;-79